< Cyclone 202124 2022 Season Cyclone 202205 >
Cyclone 202202 (Paddy)
General InformationTrack Information on Google MapsDetailed Wind InformationList of All Images || ResourceGoogle EarthGE AnimationAtom FeedGeoJSON
Detalied Best Track (Time Zone = UTC)
Year Month Day Hour Lat. Long. Pressure (hPa) Wind (kt) Class Image Chart
2021 11 19 06 -9.7 103.1 1006 20 2 Image --
2021 11 19 12 -10.4 103.7 1006 20 2 Image --
2021 11 19 18 -10.2 104.3 1005 20 2 Image --
2021 11 20 00 -10.3 104.9 1005 20 2 Image --
2021 11 20 06 -10.4 105.2 1005 20 2 Image --
2021 11 20 12 -10.6 105.7 1005 20 2 Image --
2021 11 20 18 -11.1 105.9 1003 25 2 Image --
2021 11 21 00 -11.5 106.0 1003 25 2 Image --
2021 11 21 06 -11.6 106.4 1003 25 2 Image --
2021 11 21 12 -11.9 106.9 1002 30 2 Image --
2021 11 21 18 -12.4 107.6 999 35 3 Image --
2021 11 22 00 -12.8 108.0 997 40 3 Image --
2021 11 22 06 -13.2 108.0 997 40 3 Image --
2021 11 22 12 -13.3 107.9 995 40 3 Image --
2021 11 22 18 -13.4 107.7 994 40 3 Image --
2021 11 23 00 -13.5 107.5 996 40 3 Image --
2021 11 23 06 -13.7 107.3 993 45 3 Image --
2021 11 23 12 -13.7 107.0 992 45 3 Image --
2021 11 23 18 -13.8 106.8 998 35 3 Image --
2021 11 24 00 -13.9 106.6 1004 25 2 Image --
2021 11 24 06 -14.2 105.9 1004 25 2 Image --
2021 11 24 12 -14.0 105.4 1005 25 2 Image --
2021 11 24 18 -14.1 104.8 1005 25 2 Image --
2021 11 25 00 -14.1 104.4 1005 25 2 Image --
2021 11 25 06 -14.4 103.7 1008 20 2 Image --
2021 11 25 12 -14.4 102.6 1007 20 2 Image --
< Cyclone 202124 2022 Season Cyclone 202205 >

Help